Terminal Aerodrome Forecast
Issued by NWS Omaha/Valley, NE

Home | Current Version | Previous Version | Text Only | Print | Product List | Glossary On
Versions: 1 2 3 4 5 6 7 8 9 10 11 12 13 14 15 16 17 18 19 20 21 22 23 24 25 26 27 28 29 30
000
FTUS43 KOAX 011139
TAFOMA
TAF
KOMA 011139Z 0112/0212 15008KT 4SM -SHRA BR SCT025 OVC050
     FM011400 15006KT 3SM BR OVC025
     FM011900 30005KT P6SM BKN040
      TEMPO 0122/0202 5SM -TSRA OVC030CB=

USA.gov is the U.S. government's official web portal to all federal, state and local government web resources and services.